sensor_id;sensor_type;location;lat;lon;timestamp;P1;durP1;ratioP1;P2;durP2;ratioP2
70588;SDS011;58152;49.202;18.744;2023-04-25T00:02:08;3.65;;;2.53;;
70588;SDS011;58152;49.202;18.744;2023-04-25T00:04:34;2.95;;;2.50;;
70588;SDS011;58152;49.202;18.744;2023-04-25T00:06:59;3.85;;;3.05;;
70588;SDS011;58152;49.202;18.744;2023-04-25T00:09:28;2.97;;;2.70;;
70588;SDS011;58152;49.202;18.744;2023-04-25T00:11:53;2.88;;;2.67;;
70588;SDS011;58152;49.202;18.744;2023-04-25T00:14:18;2.10;;;1.90;;
70588;SDS011;58152;49.202;18.744;2023-04-25T00:16:44;2.38;;;1.75;;
70588;SDS011;58152;49.202;18.744;2023-04-25T00:19:09;1.52;;;1.42;;
70588;SDS011;58152;49.202;18.744;2023-04-25T00:21:35;1.95;;;1.50;;
70588;SDS011;58152;49.202;18.744;2023-04-25T00:24:02;3.00;;;1.58;;
70588;SDS011;58152;49.202;18.744;2023-04-25T00:26:28;1.58;;;1.48;;
70588;SDS011;58152;49.202;18.744;2023-04-25T00:28:53;1.70;;;1.60;;
70588;SDS011;58152;49.202;18.744;2023-04-25T00:31:19;1.30;;;1.20;;
70588;SDS011;58152;49.202;18.744;2023-04-25T00:33:44;2.47;;;1.40;;
70588;SDS011;58152;49.202;18.744;2023-04-25T00:36:10;1.88;;;1.50;;
70588;SDS011;58152;49.202;18.744;2023-04-25T00:38:36;1.38;;;1.27;;
70588;SDS011;58152;49.202;18.744;2023-04-25T00:41:04;1.52;;;1.42;;
70588;SDS011;58152;49.202;18.744;2023-04-25T00:43:31;2.20;;;2.00;;
70588;SDS011;58152;49.202;18.744;2023-04-25T00:45:57;1.55;;;1.40;;
70588;SDS011;58152;49.202;18.744;2023-04-25T00:48:25;2.15;;;1.38;;
70588;SDS011;58152;49.202;18.744;2023-04-25T00:50:55;1.63;;;1.52;;
70588;SDS011;58152;49.202;18.744;2023-04-25T00:53:23;1.55;;;1.30;;
70588;SDS011;58152;49.202;18.744;2023-04-25T00:55:50;1.45;;;1.30;;
70588;SDS011;58152;49.202;18.744;2023-04-25T00:58:17;1.42;;;1.33;;
70588;SDS011;58152;49.202;18.744;2023-04-25T01:00:43;1.80;;;1.42;;
70588;SDS011;58152;49.202;18.744;2023-04-25T01:03:11;1.58;;;1.40;;
70588;SDS011;58152;49.202;18.744;2023-04-25T01:05:37;1.65;;;1.40;;
70588;SDS011;58152;49.202;18.744;2023-04-25T01:08:04;1.63;;;1.48;;
70588;SDS011;58152;49.202;18.744;2023-04-25T01:10:29;1.73;;;1.63;;
70588;SDS011;58152;49.202;18.744;2023-04-25T01:12:55;1.83;;;1.70;;
70588;SDS011;58152;49.202;18.744;2023-04-25T01:15:20;3.03;;;1.90;;
70588;SDS011;58152;49.202;18.744;2023-04-25T01:17:45;1.80;;;1.70;;
70588;SDS011;58152;49.202;18.744;2023-04-25T01:20:11;2.20;;;1.30;;
70588;SDS011;58152;49.202;18.744;2023-04-25T01:22:38;1.67;;;1.58;;
70588;SDS011;58152;49.202;18.744;2023-04-25T01:25:04;1.80;;;1.70;;
70588;SDS011;58152;49.202;18.744;2023-04-25T01:27:30;1.52;;;1.42;;
70588;SDS011;58152;49.202;18.744;2023-04-25T01:29:56;2.20;;;1.63;;
70588;SDS011;58152;49.202;18.744;2023-04-25T01:32:24;1.35;;;1.25;;
70588;SDS011;58152;49.202;18.744;2023-04-25T01:34:51;1.65;;;1.55;;
70588;SDS011;58152;49.202;18.744;2023-04-25T01:37:16;1.20;;;1.10;;
70588;SDS011;58152;49.202;18.744;2023-04-25T01:39:42;2.00;;;1.80;;
70588;SDS011;58152;49.202;18.744;2023-04-25T01:42:08;4.72;;;3.63;;
70588;SDS011;58152;49.202;18.744;2023-04-25T01:44:33;2.97;;;2.65;;
70588;SDS011;58152;49.202;18.744;2023-04-25T01:46:59;2.25;;;2.05;;
70588;SDS011;58152;49.202;18.744;2023-04-25T01:49:24;1.88;;;1.67;;
70588;SDS011;58152;49.202;18.744;2023-04-25T01:51:50;1.55;;;1.38;;
70588;SDS011;58152;49.202;18.744;2023-04-25T01:54:15;2.05;;;1.65;;
70588;SDS011;58152;49.202;18.744;2023-04-25T01:56:43;1.70;;;1.60;;
70588;SDS011;58152;49.202;18.744;2023-04-25T01:59:08;1.52;;;1.42;;
70588;SDS011;58152;49.202;18.744;2023-04-25T02:01:34;1.60;;;1.38;;
70588;SDS011;58152;49.202;18.744;2023-04-25T02:03:59;1.33;;;1.23;;
70588;SDS011;58152;49.202;18.744;2023-04-25T02:06:25;2.03;;;1.50;;
70588;SDS011;58152;49.202;18.744;2023-04-25T02:08:51;1.90;;;1.65;;
70588;SDS011;58152;49.202;18.744;2023-04-25T02:11:16;1.38;;;1.27;;
70588;SDS011;58152;49.202;18.744;2023-04-25T02:13:41;1.85;;;1.40;;
70588;SDS011;58152;49.202;18.744;2023-04-25T02:16:09;1.33;;;1.23;;
70588;SDS011;58152;49.202;18.744;2023-04-25T02:18:35;1.27;;;1.17;;
70588;SDS011;58152;49.202;18.744;2023-04-25T02:21:02;1.25;;;1.17;;
70588;SDS011;58152;49.202;18.744;2023-04-25T02:23:28;1.25;;;1.15;;
70588;SDS011;58152;49.202;18.744;2023-04-25T02:25:53;1.48;;;1.30;;
70588;SDS011;58152;49.202;18.744;2023-04-25T02:28:20;1.30;;;1.20;;
70588;SDS011;58152;49.202;18.744;2023-04-25T02:30:45;1.33;;;1.23;;
70588;SDS011;58152;49.202;18.744;2023-04-25T02:33:11;1.52;;;1.38;;
70588;SDS011;58152;49.202;18.744;2023-04-25T02:35:36;1.65;;;1.38;;
70588;SDS011;58152;49.202;18.744;2023-04-25T02:38:02;1.52;;;1.42;;
70588;SDS011;58152;49.202;18.744;2023-04-25T02:40:27;1.63;;;1.27;;
70588;SDS011;58152;49.202;18.744;2023-04-25T02:42:53;1.30;;;1.15;;
70588;SDS011;58152;49.202;18.744;2023-04-25T02:45:18;1.40;;;1.30;;
70588;SDS011;58152;49.202;18.744;2023-04-25T02:47:44;1.35;;;1.10;;
70588;SDS011;58152;49.202;18.744;2023-04-25T02:50:09;2.25;;;1.38;;
70588;SDS011;58152;49.202;18.744;2023-04-25T02:52:35;1.40;;;1.30;;
70588;SDS011;58152;49.202;18.744;2023-04-25T02:55:00;1.17;;;1.15;;
70588;SDS011;58152;49.202;18.744;2023-04-25T02:57:26;1.50;;;1.40;;
70588;SDS011;58152;49.202;18.744;2023-04-25T02:59:51;1.67;;;1.55;;
70588;SDS011;58152;49.202;18.744;2023-04-25T03:02:16;1.50;;;1.40;;
70588;SDS011;58152;49.202;18.744;2023-04-25T03:04:42;2.40;;;1.60;;
70588;SDS011;58152;49.202;18.744;2023-04-25T03:07:07;1.88;;;1.77;;
70588;SDS011;58152;49.202;18.744;2023-04-25T03:09:33;1.58;;;1.35;;
70588;SDS011;58152;49.202;18.744;2023-04-25T03:11:58;1.60;;;1.50;;
70588;SDS011;58152;49.202;18.744;2023-04-25T03:14:24;1.30;;;1.17;;
70588;SDS011;58152;49.202;18.744;2023-04-25T03:16:49;1.92;;;1.77;;
70588;SDS011;58152;49.202;18.744;2023-04-25T03:19:15;2.00;;;1.90;;
70588;SDS011;58152;49.202;18.744;2023-04-25T03:21:43;1.75;;;1.65;;
70588;SDS011;58152;49.202;18.744;2023-04-25T03:24:09;1.60;;;1.50;;
70588;SDS011;58152;49.202;18.744;2023-04-25T03:26:36;2.08;;;1.40;;
70588;SDS011;58152;49.202;18.744;2023-04-25T03:29:01;1.50;;;1.40;;
70588;SDS011;58152;49.202;18.744;2023-04-25T03:31:27;2.03;;;1.70;;
70588;SDS011;58152;49.202;18.744;2023-04-25T03:33:52;2.00;;;1.90;;
70588;SDS011;58152;49.202;18.744;2023-04-25T03:36:18;2.05;;;1.85;;
70588;SDS011;58152;49.202;18.744;2023-04-25T03:38:43;2.25;;;2.03;;
70588;SDS011;58152;49.202;18.744;2023-04-25T03:41:08;2.33;;;1.92;;
70588;SDS011;58152;49.202;18.744;2023-04-25T03:43:34;1.92;;;1.77;;
70588;SDS011;58152;49.202;18.744;2023-04-25T03:45:59;1.55;;;1.45;;
70588;SDS011;58152;49.202;18.744;2023-04-25T03:48:26;1.70;;;1.60;;
70588;SDS011;58152;49.202;18.744;2023-04-25T03:50:52;1.70;;;1.60;;
70588;SDS011;58152;49.202;18.744;2023-04-25T03:53:18;1.50;;;1.40;;
70588;SDS011;58152;49.202;18.744;2023-04-25T03:55:43;1.45;;;1.33;;
70588;SDS011;58152;49.202;18.744;2023-04-25T03:58:09;3.47;;;1.30;;
70588;SDS011;58152;49.202;18.744;2023-04-25T04:00:34;1.40;;;1.30;;
70588;SDS011;58152;49.202;18.744;2023-04-25T04:03:00;1.05;;;0.95;;
70588;SDS011;58152;49.202;18.744;2023-04-25T04:05:26;0.98;;;0.90;;
70588;SDS011;58152;49.202;18.744;2023-04-25T04:07:52;0.93;;;0.80;;
70588;SDS011;58152;49.202;18.744;2023-04-25T04:10:18;1.00;;;1.00;;
70588;SDS011;58152;49.202;18.744;2023-04-25T04:12:44;1.23;;;1.13;;
70588;SDS011;58152;49.202;18.744;2023-04-25T04:15:09;1.08;;;1.00;;
70588;SDS011;58152;49.202;18.744;2023-04-25T04:17:35;1.40;;;0.95;;
70588;SDS011;58152;49.202;18.744;2023-04-25T04:20:01;1.15;;;1.08;;
70588;SDS011;58152;49.202;18.744;2023-04-25T04:22:28;1.40;;;1.15;;
70588;SDS011;58152;49.202;18.744;2023-04-25T04:24:53;1.02;;;1.00;;
70588;SDS011;58152;49.202;18.744;2023-04-25T04:27:19;2.05;;;1.20;;
70588;SDS011;58152;49.202;18.744;2023-04-25T04:29:47;1.52;;;1.20;;
70588;SDS011;58152;49.202;18.744;2023-04-25T04:32:13;1.10;;;1.00;;
70588;SDS011;58152;49.202;18.744;2023-04-25T04:34:39;1.02;;;1.00;;
70588;SDS011;58152;49.202;18.744;2023-04-25T04:37:06;1.10;;;1.00;;
70588;SDS011;58152;49.202;18.744;2023-04-25T04:39:32;1.23;;;0.90;;
70588;SDS011;58152;49.202;18.744;2023-04-25T04:41:58;0.80;;;0.80;;
70588;SDS011;58152;49.202;18.744;2023-04-25T04:44:26;1.15;;;1.05;;
70588;SDS011;58152;49.202;18.744;2023-04-25T04:46:51;0.90;;;0.80;;
70588;SDS011;58152;49.202;18.744;2023-04-25T04:49:17;1.08;;;0.98;;
70588;SDS011;58152;49.202;18.744;2023-04-25T04:51:42;2.15;;;1.20;;
70588;SDS011;58152;49.202;18.744;2023-04-25T04:54:10;1.70;;;1.38;;
70588;SDS011;58152;49.202;18.744;2023-04-25T04:56:36;1.60;;;1.45;;
70588;SDS011;58152;49.202;18.744;2023-04-25T04:59:01;1.95;;;1.85;;
70588;SDS011;58152;49.202;18.744;2023-04-25T05:01:28;1.40;;;1.30;;
70588;SDS011;58152;49.202;18.744;2023-04-25T05:03:55;2.17;;;1.98;;
70588;SDS011;58152;49.202;18.744;2023-04-25T05:06:25;1.70;;;1.60;;
70588;SDS011;58152;49.202;18.744;2023-04-25T05:08:51;1.90;;;1.65;;
70588;SDS011;58152;49.202;18.744;2023-04-25T05:11:17;1.77;;;1.58;;
70588;SDS011;58152;49.202;18.744;2023-04-25T05:13:43;2.15;;;1.95;;
70588;SDS011;58152;49.202;18.744;2023-04-25T05:16:08;1.50;;;1.40;;
70588;SDS011;58152;49.202;18.744;2023-04-25T05:18:34;1.65;;;1.55;;
70588;SDS011;58152;49.202;18.744;2023-04-25T05:21:00;1.98;;;1.40;;
70588;SDS011;58152;49.202;18.744;2023-04-25T05:23:25;1.50;;;1.40;;
70588;SDS011;58152;49.202;18.744;2023-04-25T05:25:52;2.28;;;1.38;;
70588;SDS011;58152;49.202;18.744;2023-04-25T05:28:18;1.60;;;1.50;;
70588;SDS011;58152;49.202;18.744;2023-04-25T05:30:43;1.90;;;1.40;;
70588;SDS011;58152;49.202;18.744;2023-04-25T05:33:09;2.63;;;1.33;;
70588;SDS011;58152;49.202;18.744;2023-04-25T05:35:34;1.58;;;1.48;;
70588;SDS011;58152;49.202;18.744;2023-04-25T05:38:00;1.23;;;1.15;;
70588;SDS011;58152;49.202;18.744;2023-04-25T05:40:25;2.00;;;1.20;;
70588;SDS011;58152;49.202;18.744;2023-04-25T05:42:50;1.60;;;1.30;;
70588;SDS011;58152;49.202;18.744;2023-04-25T05:45:16;1.17;;;1.00;;
70588;SDS011;58152;49.202;18.744;2023-04-25T05:47:42;1.23;;;1.13;;
70588;SDS011;58152;49.202;18.744;2023-04-25T05:50:08;2.00;;;1.30;;
70588;SDS011;58152;49.202;18.744;2023-04-25T05:52:33;2.38;;;1.83;;
70588;SDS011;58152;49.202;18.744;2023-04-25T05:54:59;1.88;;;1.75;;
70588;SDS011;58152;49.202;18.744;2023-04-25T05:57:25;2.22;;;2.03;;
70588;SDS011;58152;49.202;18.744;2023-04-25T05:59:52;2.60;;;2.17;;
70588;SDS011;58152;49.202;18.744;2023-04-25T06:02:19;2.50;;;2.28;;
70588;SDS011;58152;49.202;18.744;2023-04-25T06:04:49;2.78;;;1.90;;
70588;SDS011;58152;49.202;18.744;2023-04-25T06:07:15;1.75;;;1.45;;
70588;SDS011;58152;49.202;18.744;2023-04-25T06:09:41;2.28;;;2.08;;
70588;SDS011;58152;49.202;18.744;2023-04-25T06:12:06;1.65;;;1.55;;
70588;SDS011;58152;49.202;18.744;2023-04-25T06:14:32;1.98;;;1.88;;
70588;SDS011;58152;49.202;18.744;2023-04-25T06:16:59;1.25;;;1.13;;
70588;SDS011;58152;49.202;18.744;2023-04-25T06:19:34;2.30;;;1.75;;
70588;SDS011;58152;49.202;18.744;2023-04-25T06:22:01;2.45;;;1.70;;
70588;SDS011;58152;49.202;18.744;2023-04-25T06:24:27;2.20;;;1.75;;
70588;SDS011;58152;49.202;18.744;2023-04-25T06:26:52;2.88;;;2.35;;
70588;SDS011;58152;49.202;18.744;2023-04-25T06:29:18;2.40;;;2.00;;
70588;SDS011;58152;49.202;18.744;2023-04-25T06:31:44;2.20;;;1.92;;
70588;SDS011;58152;49.202;18.744;2023-04-25T06:34:12;2.58;;;2.38;;
70588;SDS011;58152;49.202;18.744;2023-04-25T06:36:38;2.78;;;2.28;;
70588;SDS011;58152;49.202;18.744;2023-04-25T06:39:03;2.50;;;2.30;;
70588;SDS011;58152;49.202;18.744;2023-04-25T06:41:29;3.45;;;2.60;;
70588;SDS011;58152;49.202;18.744;2023-04-25T06:43:54;2.38;;;2.17;;
70588;SDS011;58152;49.202;18.744;2023-04-25T06:46:22;2.58;;;2.38;;
70588;SDS011;58152;49.202;18.744;2023-04-25T06:48:48;2.35;;;2.15;;
70588;SDS011;58152;49.202;18.744;2023-04-25T06:51:13;2.47;;;2.28;;
70588;SDS011;58152;49.202;18.744;2023-04-25T06:53:39;2.42;;;2.20;;
70588;SDS011;58152;49.202;18.744;2023-04-25T06:56:05;2.00;;;1.80;;
70588;SDS011;58152;49.202;18.744;2023-04-25T06:58:31;2.65;;;2.45;;
70588;SDS011;58152;49.202;18.744;2023-04-25T07:00:56;2.67;;;2.47;;
70588;SDS011;58152;49.202;18.744;2023-04-25T07:03:25;2.50;;;2.30;;
70588;SDS011;58152;49.202;18.744;2023-04-25T07:05:50;2.85;;;2.13;;
70588;SDS011;58152;49.202;18.744;2023-04-25T07:08:16;2.88;;;2.35;;
70588;SDS011;58152;49.202;18.744;2023-04-25T07:10:41;2.72;;;2.53;;
70588;SDS011;58152;49.202;18.744;2023-04-25T07:13:07;2.55;;;2.35;;
70588;SDS011;58152;49.202;18.744;2023-04-25T07:15:33;2.10;;;1.90;;
70588;SDS011;58152;49.202;18.744;2023-04-25T07:17:58;2.97;;;2.10;;
70588;SDS011;58152;49.202;18.744;2023-04-25T07:20:24;2.15;;;2.05;;
70588;SDS011;58152;49.202;18.744;2023-04-25T07:22:50;2.22;;;2.03;;
70588;SDS011;58152;49.202;18.744;2023-04-25T07:25:15;2.85;;;2.08;;
70588;SDS011;58152;49.202;18.744;2023-04-25T07:27:44;2.28;;;2.08;;
70588;SDS011;58152;49.202;18.744;2023-04-25T07:30:10;2.50;;;2.30;;
70588;SDS011;58152;49.202;18.744;2023-04-25T07:32:35;1.90;;;1.80;;
70588;SDS011;58152;49.202;18.744;2023-04-25T07:35:01;2.55;;;2.10;;
70588;SDS011;58152;49.202;18.744;2023-04-25T07:37:28;2.10;;;1.90;;
70588;SDS011;58152;49.202;18.744;2023-04-25T07:39:53;1.83;;;1.63;;
70588;SDS011;58152;49.202;18.744;2023-04-25T07:42:21;1.98;;;1.77;;
70588;SDS011;58152;49.202;18.744;2023-04-25T07:44:55;1.55;;;1.45;;
70588;SDS011;58152;49.202;18.744;2023-04-25T07:47:45;2.28;;;1.70;;
70588;SDS011;58152;49.202;18.744;2023-04-25T07:50:11;2.03;;;1.70;;
70588;SDS011;58152;49.202;18.744;2023-04-25T07:52:36;1.90;;;1.80;;
70588;SDS011;58152;49.202;18.744;2023-04-25T07:55:02;1.90;;;1.80;;
70588;SDS011;58152;49.202;18.744;2023-04-25T07:57:28;1.52;;;1.42;;
70588;SDS011;58152;49.202;18.744;2023-04-25T07:59:54;142.52;;;102.50;;
70588;SDS011;58152;49.202;18.744;2023-04-25T08:02:19;132.82;;;102.22;;
70588;SDS011;58152;49.202;18.744;2023-04-25T08:04:45;79.35;;;59.58;;
70588;SDS011;58152;49.202;18.744;2023-04-25T08:07:11;25.10;;;18.42;;
70588;SDS011;58152;49.202;18.744;2023-04-25T08:09:36;10.98;;;7.68;;
70588;SDS011;58152;49.202;18.744;2023-04-25T08:12:02;5.05;;;3.92;;
70588;SDS011;58152;49.202;18.744;2023-04-25T08:14:28;3.10;;;2.80;;
70588;SDS011;58152;49.202;18.744;2023-04-25T08:16:56;2.92;;;2.15;;
70588;SDS011;58152;49.202;18.744;2023-04-25T08:19:24;2.67;;;2.20;;
70588;SDS011;58152;49.202;18.744;2023-04-25T08:21:51;2.55;;;2.30;;
70588;SDS011;58152;49.202;18.744;2023-04-25T08:24:20;3.33;;;2.63;;
70588;SDS011;58152;49.202;18.744;2023-04-25T08:26:45;2.92;;;2.63;;
70588;SDS011;58152;49.202;18.744;2023-04-25T08:29:11;2.33;;;2.13;;
70588;SDS011;58152;49.202;18.744;2023-04-25T08:31:38;2.95;;;2.75;;
70588;SDS011;58152;49.202;18.744;2023-04-25T08:34:07;2.33;;;2.15;;
70588;SDS011;58152;49.202;18.744;2023-04-25T08:36:34;2.35;;;2.15;;
70588;SDS011;58152;49.202;18.744;2023-04-25T08:39:00;3.03;;;2.83;;
70588;SDS011;58152;49.202;18.744;2023-04-25T08:41:25;3.05;;;2.65;;
70588;SDS011;58152;49.202;18.744;2023-04-25T08:43:54;3.05;;;2.75;;
70588;SDS011;58152;49.202;18.744;2023-04-25T08:46:25;2.45;;;2.25;;
70588;SDS011;58152;49.202;18.744;2023-04-25T08:48:54;3.10;;;2.75;;
70588;SDS011;58152;49.202;18.744;2023-04-25T08:51:27;3.47;;;2.67;;
70588;SDS011;58152;49.202;18.744;2023-04-25T08:54:15;2.75;;;2.55;;
70588;SDS011;58152;49.202;18.744;2023-04-25T08:57:00;2.65;;;2.45;;
70588;SDS011;58152;49.202;18.744;2023-04-25T08:59:28;2.78;;;2.58;;
70588;SDS011;58152;49.202;18.744;2023-04-25T09:01:55;2.90;;;2.58;;
70588;SDS011;58152;49.202;18.744;2023-04-25T09:04:23;2.92;;;2.10;;
70588;SDS011;58152;49.202;18.744;2023-04-25T09:06:48;3.55;;;2.85;;
70588;SDS011;58152;49.202;18.744;2023-04-25T09:09:14;2.75;;;2.55;;
70588;SDS011;58152;49.202;18.744;2023-04-25T09:11:42;3.00;;;2.67;;
70588;SDS011;58152;49.202;18.744;2023-04-25T09:19:27;84.47;;;62.83;;
70588;SDS011;58152;49.202;18.744;2023-04-25T09:21:58;34.72;;;26.02;;
70588;SDS011;58152;49.202;18.744;2023-04-25T09:27:11;6.72;;;5.18;;
70588;SDS011;58152;49.202;18.744;2023-04-25T09:29:39;3.60;;;3.30;;
70588;SDS011;58152;49.202;18.744;2023-04-25T09:32:11;3.30;;;3.00;;
70588;SDS011;58152;49.202;18.744;2023-04-25T09:34:38;3.30;;;2.95;;
70588;SDS011;58152;49.202;18.744;2023-04-25T09:37:11;2.67;;;2.40;;
70588;SDS011;58152;49.202;18.744;2023-04-25T09:39:48;4.82;;;2.15;;
70588;SDS011;58152;49.202;18.744;2023-04-25T09:42:15;3.13;;;2.13;;
70588;SDS011;58152;49.202;18.744;2023-04-25T09:44:47;2.72;;;2.42;;
70588;SDS011;58152;49.202;18.744;2023-04-25T09:47:13;3.00;;;2.80;;
70588;SDS011;58152;49.202;18.744;2023-04-25T09:49:41;31.52;;;25.67;;
70588;SDS011;58152;49.202;18.744;2023-04-25T09:52:08;49.42;;;37.10;;
70588;SDS011;58152;49.202;18.744;2023-04-25T09:54:33;43.03;;;31.65;;
70588;SDS011;58152;49.202;18.744;2023-04-25T09:57:02;17.65;;;11.60;;
70588;SDS011;58152;49.202;18.744;2023-04-25T09:59:36;7.47;;;6.03;;
70588;SDS011;58152;49.202;18.744;2023-04-25T10:02:04;4.25;;;3.38;;
70588;SDS011;58152;49.202;18.744;2023-04-25T10:04:34;3.10;;;2.80;;
70588;SDS011;58152;49.202;18.744;2023-04-25T10:07:01;3.28;;;2.78;;
70588;SDS011;58152;49.202;18.744;2023-04-25T10:09:30;2.90;;;2.60;;
70588;SDS011;58152;49.202;18.744;2023-04-25T10:11:58;2.70;;;2.50;;
70588;SDS011;58152;49.202;18.744;2023-04-25T10:14:25;2.67;;;2.47;;
70588;SDS011;58152;49.202;18.744;2023-04-25T10:16:51;2.90;;;2.70;;
70588;SDS011;58152;49.202;18.744;2023-04-25T10:19:22;3.05;;;2.83;;
70588;SDS011;58152;49.202;18.744;2023-04-25T10:21:54;2.78;;;2.58;;
70588;SDS011;58152;49.202;18.744;2023-04-25T10:24:23;4.15;;;3.17;;
70588;SDS011;58152;49.202;18.744;2023-04-25T10:26:50;4.75;;;2.92;;
70588;SDS011;58152;49.202;18.744;2023-04-25T10:29:23;3.33;;;2.97;;
70588;SDS011;58152;49.202;18.744;2023-04-25T10:31:50;3.17;;;2.88;;
70588;SDS011;58152;49.202;18.744;2023-04-25T10:34:16;3.17;;;2.92;;
70588;SDS011;58152;49.202;18.744;2023-04-25T10:36:42;2.83;;;2.63;;
70588;SDS011;58152;49.202;18.744;2023-04-25T10:39:15;3.00;;;2.80;;
70588;SDS011;58152;49.202;18.744;2023-04-25T10:41:53;3.33;;;2.88;;
70588;SDS011;58152;49.202;18.744;2023-04-25T10:44:22;4.90;;;3.00;;
70588;SDS011;58152;49.202;18.744;2023-04-25T10:46:47;3.00;;;2.70;;
70588;SDS011;58152;49.202;18.744;2023-04-25T10:49:46;2.30;;;2.08;;
70588;SDS011;58152;49.202;18.744;2023-04-25T10:52:15;2.83;;;2.50;;
70588;SDS011;58152;49.202;18.744;2023-04-25T10:54:57;3.45;;;3.15;;
70588;SDS011;58152;49.202;18.744;2023-04-25T10:57:27;3.17;;;2.90;;
70588;SDS011;58152;49.202;18.744;2023-04-25T11:02:43;3.55;;;2.85;;
70588;SDS011;58152;49.202;18.744;2023-04-25T11:07:59;3.13;;;2.88;;
70588;SDS011;58152;49.202;18.744;2023-04-25T11:10:29;2.90;;;2.70;;
70588;SDS011;58152;49.202;18.744;2023-04-25T11:12:56;3.38;;;2.50;;
70588;SDS011;58152;49.202;18.744;2023-04-25T11:15:22;2.85;;;2.65;;
70588;SDS011;58152;49.202;18.744;2023-04-25T11:17:50;3.17;;;2.88;;
70588;SDS011;58152;49.202;18.744;2023-04-25T11:20:18;2.97;;;2.78;;
70588;SDS011;58152;49.202;18.744;2023-04-25T11:22:44;3.08;;;2.88;;
70588;SDS011;58152;49.202;18.744;2023-04-25T11:25:11;3.40;;;3.10;;
70588;SDS011;58152;49.202;18.744;2023-04-25T11:27:48;3.35;;;3.05;;
70588;SDS011;58152;49.202;18.744;2023-04-25T11:30:17;3.38;;;3.08;;
70588;SDS011;58152;49.202;18.744;2023-04-25T11:32:43;2.85;;;2.63;;
70588;SDS011;58152;49.202;18.744;2023-04-25T11:35:09;3.40;;;3.10;;
70588;SDS011;58152;49.202;18.744;2023-04-25T11:37:35;3.15;;;2.95;;
70588;SDS011;58152;49.202;18.744;2023-04-25T11:40:02;3.08;;;2.78;;
70588;SDS011;58152;49.202;18.744;2023-04-25T11:42:28;3.55;;;3.25;;
70588;SDS011;58152;49.202;18.744;2023-04-25T11:44:55;3.70;;;3.30;;
70588;SDS011;58152;49.202;18.744;2023-04-25T11:47:20;4.03;;;3.10;;
70588;SDS011;58152;49.202;18.744;2023-04-25T11:49:54;2.95;;;2.65;;
70588;SDS011;58152;49.202;18.744;2023-04-25T11:52:20;3.90;;;2.92;;
70588;SDS011;58152;49.202;18.744;2023-04-25T11:54:45;3.20;;;2.90;;
70588;SDS011;58152;49.202;18.744;2023-04-25T11:57:11;3.17;;;2.85;;
70588;SDS011;58152;49.202;18.744;2023-04-25T11:59:37;3.40;;;3.10;;
70588;SDS011;58152;49.202;18.744;2023-04-25T12:02:02;3.65;;;3.35;;
70588;SDS011;58152;49.202;18.744;2023-04-25T12:04:29;5.18;;;3.85;;
70588;SDS011;58152;49.202;18.744;2023-04-25T12:06:55;4.10;;;3.50;;
70588;SDS011;58152;49.202;18.744;2023-04-25T12:09:27;3.10;;;2.83;;
70588;SDS011;58152;49.202;18.744;2023-04-25T12:11:55;3.10;;;2.80;;
70588;SDS011;58152;49.202;18.744;2023-04-25T12:14:25;4.68;;;3.13;;
70588;SDS011;58152;49.202;18.744;2023-04-25T12:16:52;2.50;;;2.30;;
70588;SDS011;58152;49.202;18.744;2023-04-25T12:19:21;3.40;;;2.70;;
70588;SDS011;58152;49.202;18.744;2023-04-25T12:21:46;3.55;;;3.08;;
70588;SDS011;58152;49.202;18.744;2023-04-25T12:24:22;3.60;;;3.30;;
70588;SDS011;58152;49.202;18.744;2023-04-25T12:29:27;3.42;;;3.13;;
70588;SDS011;58152;49.202;18.744;2023-04-25T12:31:54;3.50;;;2.75;;
70588;SDS011;58152;49.202;18.744;2023-04-25T12:34:21;2.78;;;2.58;;
70588;SDS011;58152;49.202;18.744;2023-04-25T12:36:47;2.80;;;2.50;;
70588;SDS011;58152;49.202;18.744;2023-04-25T12:39:17;2.80;;;2.53;;
70588;SDS011;58152;49.202;18.744;2023-04-25T12:41:52;4.38;;;2.80;;
70588;SDS011;58152;49.202;18.744;2023-04-25T12:44:19;2.88;;;2.67;;
70588;SDS011;58152;49.202;18.744;2023-04-25T12:46:45;3.78;;;2.75;;
70588;SDS011;58152;49.202;18.744;2023-04-25T12:49:10;3.20;;;2.58;;
70588;SDS011;58152;49.202;18.744;2023-04-25T12:51:36;2.80;;;2.13;;
70588;SDS011;58152;49.202;18.744;2023-04-25T12:54:02;2.58;;;2.38;;
70588;SDS011;58152;49.202;18.744;2023-04-25T12:56:29;2.25;;;2.05;;
70588;SDS011;58152;49.202;18.744;2023-04-25T12:58:55;3.08;;;2.38;;
70588;SDS011;58152;49.202;18.744;2023-04-25T13:01:21;3.28;;;2.80;;
70588;SDS011;58152;49.202;18.744;2023-04-25T13:03:47;3.10;;;2.40;;
70588;SDS011;58152;49.202;18.744;2023-04-25T13:06:13;2.55;;;2.35;;
70588;SDS011;58152;49.202;18.744;2023-04-25T13:08:40;3.40;;;2.28;;
70588;SDS011;58152;49.202;18.744;2023-04-25T13:11:06;5.15;;;2.33;;
70588;SDS011;58152;49.202;18.744;2023-04-25T13:13:31;2.50;;;1.98;;
70588;SDS011;58152;49.202;18.744;2023-04-25T13:15:59;2.28;;;2.13;;
70588;SDS011;58152;49.202;18.744;2023-04-25T13:18:28;3.95;;;2.58;;
70588;SDS011;58152;49.202;18.744;2023-04-25T13:20:54;2.38;;;2.17;;
70588;SDS011;58152;49.202;18.744;2023-04-25T13:23:20;3.50;;;2.28;;
70588;SDS011;58152;49.202;18.744;2023-04-25T13:25:46;2.42;;;1.92;;
70588;SDS011;58152;49.202;18.744;2023-04-25T13:28:17;2.90;;;2.20;;
70588;SDS011;58152;49.202;18.744;2023-04-25T13:30:43;2.10;;;1.83;;
70588;SDS011;58152;49.202;18.744;2023-04-25T13:33:08;2.13;;;1.92;;
70588;SDS011;58152;49.202;18.744;2023-04-25T13:35:34;3.20;;;2.40;;
70588;SDS011;58152;49.202;18.744;2023-04-25T13:38:00;2.67;;;2.33;;
70588;SDS011;58152;49.202;18.744;2023-04-25T13:40:26;2.63;;;2.35;;
70588;SDS011;58152;49.202;18.744;2023-04-25T13:42:52;2.78;;;2.20;;
70588;SDS011;58152;49.202;18.744;2023-04-25T13:45:18;2.55;;;1.95;;
70588;SDS011;58152;49.202;18.744;2023-04-25T13:47:44;3.05;;;2.17;;
70588;SDS011;58152;49.202;18.744;2023-04-25T13:50:10;2.50;;;2.08;;
70588;SDS011;58152;49.202;18.744;2023-04-25T13:56:08;2.15;;;1.67;;
70588;SDS011;58152;49.202;18.744;2023-04-25T14:01:53;2.33;;;1.67;;
70588;SDS011;58152;49.202;18.744;2023-04-25T14:04:41;2.55;;;1.90;;
70588;SDS011;58152;49.202;18.744;2023-04-25T14:07:13;2.80;;;2.30;;
70588;SDS011;58152;49.202;18.744;2023-04-25T14:09:43;3.13;;;2.25;;
70588;SDS011;58152;49.202;18.744;2023-04-25T14:12:23;2.40;;;2.20;;
70588;SDS011;58152;49.202;18.744;2023-04-25T14:22:21;1.98;;;1.77;;
70588;SDS011;58152;49.202;18.744;2023-04-25T14:25:08;3.75;;;1.80;;
70588;SDS011;58152;49.202;18.744;2023-04-25T14:27:35;2.92;;;1.70;;
70588;SDS011;58152;49.202;18.744;2023-04-25T14:30:16;2.60;;;1.63;;
70588;SDS011;58152;49.202;18.744;2023-04-25T14:35:55;3.42;;;1.77;;
70588;SDS011;58152;49.202;18.744;2023-04-25T14:41:59;1.55;;;1.23;;
70588;SDS011;58152;49.202;18.744;2023-04-25T14:44:24;2.50;;;1.50;;
70588;SDS011;58152;49.202;18.744;2023-04-25T14:46:50;50.78;;;42.25;;
70588;SDS011;58152;49.202;18.744;2023-04-25T14:49:16;18.98;;;15.55;;
70588;SDS011;58152;49.202;18.744;2023-04-25T14:51:42;10.02;;;7.78;;
70588;SDS011;58152;49.202;18.744;2023-04-25T14:54:07;3.33;;;3.00;;
70588;SDS011;58152;49.202;18.744;2023-04-25T14:56:33;2.95;;;1.85;;
70588;SDS011;58152;49.202;18.744;2023-04-25T14:58:58;2.58;;;1.58;;
70588;SDS011;58152;49.202;18.744;2023-04-25T15:01:23;3.00;;;1.65;;
70588;SDS011;58152;49.202;18.744;2023-04-25T15:03:49;3.08;;;1.92;;
70588;SDS011;58152;49.202;18.744;2023-04-25T15:06:15;2.00;;;1.58;;
70588;SDS011;58152;49.202;18.744;2023-04-25T15:08:41;2.33;;;1.80;;
70588;SDS011;58152;49.202;18.744;2023-04-25T15:11:06;1.63;;;1.45;;